createdAt,value
2019-04-25T00:00:36.639Z,99.99
2019-04-25T00:01:37.025Z,99.99
2019-04-25T00:02:36.772Z,99.99
2019-04-25T00:03:36.709Z,99.99
2019-04-25T00:04:36.939Z,99.99
2019-04-25T00:05:36.294Z,99.99
2019-04-25T00:06:37.082Z,99.99
2019-04-25T00:07:37.085Z,99.99
2019-04-25T00:08:37.246Z,99.99
2019-04-25T00:09:38.994Z,99.99
2019-04-25T00:10:35.845Z,99.99
2019-04-25T00:11:35.813Z,99.99
2019-04-25T00:12:35.793Z,99.99
2019-04-25T00:13:35.777Z,99.99
2019-04-25T00:14:35.756Z,99.99
2019-04-25T00:15:35.736Z,99.99
2019-04-25T00:16:35.717Z,99.99
2019-04-25T00:17:35.703Z,99.99
2019-04-25T00:18:35.684Z,99.99
2019-04-25T00:20:52.835Z,99.99
2019-04-25T00:21:19.606Z,99.99
2019-04-25T00:22:19.585Z,99.99
2019-04-25T00:23:21.691Z,99.99
2019-04-25T00:24:19.547Z,99.99
2019-04-25T00:25:19.535Z,99.99
2019-04-25T00:26:21.088Z,99.99
2019-04-25T00:27:19.488Z,99.99
2019-04-25T00:28:19.468Z,99.99
2019-04-25T00:29:19.446Z,99.99
2019-04-25T00:30:19.427Z,99.99
2019-04-25T00:33:21.608Z,99.99
2019-04-25T00:33:47.877Z,99.99
2019-04-25T00:34:48.456Z,99.99
2019-04-25T00:35:47.839Z,99.99
2019-04-25T00:36:48.658Z,99.99
2019-04-25T00:37:47.835Z,99.99
2019-04-25T00:38:48.276Z,99.99
2019-04-25T00:39:47.766Z,99.99
2019-04-25T00:40:48.067Z,99.99
2019-04-25T00:42:20.929Z,99.99
2019-04-25T00:42:48.261Z,99.99
2019-04-25T00:43:47.691Z,99.99
2019-04-25T00:44:47.662Z,99.99
2019-04-25T00:45:47.639Z,99.99
2019-04-25T00:46:49.028Z,99.99
2019-04-25T00:47:47.794Z,99.99
2019-04-25T00:48:47.737Z,99.99
2019-04-25T00:49:47.978Z,99.99
2019-04-25T00:50:48.004Z,99.99
2019-04-25T00:51:48.271Z,99.99
2019-04-25T00:52:48.293Z,99.99
2019-04-25T00:54:22.549Z,99.99
2019-04-25T00:54:48.333Z,99.99
2019-04-25T00:55:47.443Z,99.99
2019-04-25T00:56:48.273Z,99.99
2019-04-25T00:57:47.401Z,99.99
2019-04-25T00:58:47.389Z,99.99
2019-04-25T00:59:47.368Z,99.99
2019-04-25T01:00:47.340Z,99.99
2019-04-25T01:01:47.987Z,99.99
2019-04-25T01:02:47.360Z,99.99
2019-04-25T01:03:47.279Z,99.99
2019-04-25T01:04:47.268Z,99.99
2019-04-25T01:05:47.527Z,99.99
2019-04-25T01:06:47.551Z,99.99
2019-04-25T01:07:47.759Z,99.99
2019-04-25T01:08:47.780Z,99.99
2019-04-25T01:09:47.871Z,99.99
2019-04-25T01:10:47.961Z,99.99
2019-04-25T01:11:47.921Z,99.99
2019-04-25T01:12:47.096Z,99.99
2019-04-25T01:13:47.083Z,99.99
2019-04-25T01:14:47.057Z,99.99
2019-04-25T01:15:47.035Z,99.99
2019-04-25T01:16:47.016Z,99.99
2019-04-25T01:17:47.036Z,99.99
2019-04-25T01:18:46.976Z,99.99
2019-04-25T01:19:46.956Z,99.99
2019-04-25T01:20:46.999Z,99.99
2019-04-25T01:21:47.012Z,99.99
2019-04-25T01:22:47.197Z,99.99
2019-04-25T01:23:47.304Z,99.99
2019-04-25T01:24:47.250Z,99.99
2019-04-25T01:25:47.841Z,99.99
2019-04-25T01:26:47.482Z,99.99
2019-04-25T01:27:47.673Z,99.99
2019-04-25T01:28:47.644Z,99.99
2019-04-25T01:29:46.753Z,99.99
2019-04-25T01:30:46.735Z,99.99
2019-04-25T01:31:46.711Z,99.99
2019-04-25T01:32:46.803Z,99.99
2019-04-25T01:33:46.791Z,99.99
2019-04-25T01:34:47.043Z,99.99
2019-04-25T01:35:47.352Z,99.99
2019-04-25T01:36:47.220Z,99.99
2019-04-25T01:37:47.410Z,99.99
2019-04-25T01:38:47.422Z,99.99
2019-04-25T01:39:47.475Z,99.99
2019-04-25T01:40:48.129Z,99.99
2019-04-25T01:41:47.590Z,99.99
2019-04-25T01:42:47.847Z,99.99
2019-04-25T01:43:48.426Z,99.99
2019-04-25T01:44:47.924Z,99.99
2019-04-25T01:45:46.430Z,99.99
2019-04-25T01:46:46.408Z,99.99
2019-04-25T01:47:46.389Z,99.99
2019-04-25T01:48:46.368Z,99.99
2019-04-25T01:49:46.348Z,99.99
2019-04-25T01:50:46.327Z,99.99
2019-04-25T01:51:46.305Z,99.99
2019-04-25T01:52:46.286Z,99.99
2019-04-25T01:53:46.264Z,99.99
2019-04-25T01:54:46.245Z,99.99
2019-04-25T01:55:56.163Z,99.99
2019-04-25T01:56:46.214Z,99.99
2019-04-25T01:57:46.185Z,99.99
2019-04-25T01:58:46.167Z,99.99
2019-04-25T01:59:46.143Z,99.99
2019-04-25T02:00:46.125Z,99.99
2019-04-25T02:01:46.102Z,99.99
2019-04-25T02:02:46.084Z,99.99
2019-04-25T02:03:46.059Z,99.99
2019-04-25T02:04:46.040Z,99.99
2019-04-25T02:05:46.020Z,99.99
2019-04-25T02:06:46.000Z,99.99
2019-04-25T02:07:45.988Z,99.99
2019-04-25T02:08:45.958Z,99.99
2019-04-25T02:09:45.937Z,99.99
2019-04-25T02:10:45.917Z,99.99
2019-04-25T02:11:45.896Z,99.99
2019-04-25T02:12:45.880Z,99.99
2019-04-25T02:13:45.855Z,99.99
2019-04-25T02:14:45.845Z,99.99
2019-04-25T02:15:45.819Z,99.99
2019-04-25T02:16:45.795Z,99.99
2019-04-25T02:17:45.780Z,99.99
2019-04-25T02:18:45.765Z,99.99
2019-04-25T02:19:45.736Z,99.99
2019-04-25T02:20:45.713Z,99.99
2019-04-25T02:21:45.693Z,99.99
2019-04-25T02:22:45.675Z,99.99
2019-04-25T02:23:45.655Z,99.99
2019-04-25T02:24:45.629Z,99.99
2019-04-25T02:25:45.610Z,99.99
2019-04-25T02:26:45.689Z,99.99
2019-04-25T02:27:45.568Z,99.99
2019-04-25T02:28:45.548Z,99.99
2019-04-25T02:29:45.588Z,99.99
2019-04-25T02:30:45.612Z,99.99
2019-04-25T02:31:45.490Z,99.99
2019-04-25T02:32:45.469Z,99.99
2019-04-25T02:33:45.446Z,99.99
2019-04-25T02:34:45.751Z,99.99
2019-04-25T02:35:46.724Z,99.99
2019-04-25T02:36:47.004Z,99.99
2019-04-25T02:37:45.362Z,99.99
2019-04-25T02:38:45.344Z,99.99
2019-04-25T02:39:45.322Z,99.99
2019-04-25T02:40:45.654Z,99.99
2019-04-25T02:41:45.280Z,99.99
2019-04-25T02:42:46.675Z,99.99
2019-04-25T02:45:44.242Z,99.99
2019-04-25T02:46:44.931Z,99.99
2019-04-25T02:47:43.800Z,99.99
2019-04-25T02:49:42.097Z,99.99
2019-04-25T02:50:44.120Z,99.99
2019-04-25T02:51:42.055Z,99.99
2019-04-25T02:52:44.217Z,99.99
2019-04-25T02:53:44.487Z,99.99
2019-04-25T02:54:41.989Z,99.99
2019-04-25T02:55:44.486Z,99.99
2019-04-25T02:56:41.956Z,99.99
2019-04-25T02:57:41.926Z,99.99
2019-04-25T02:58:44.160Z,99.99
2019-04-25T02:59:41.892Z,99.99
2019-04-25T03:00:55.098Z,99.99
2019-04-25T03:01:44.327Z,99.99
2019-04-25T03:02:41.827Z,99.99
2019-04-25T03:03:41.799Z,99.99
2019-04-25T03:04:44.221Z,99.99
2019-04-25T03:05:41.759Z,99.99
2019-04-25T03:06:41.747Z,99.99
2019-04-25T03:07:41.719Z,99.99
2019-04-25T03:08:41.692Z,99.99
2019-04-25T03:09:45.103Z,99.99
2019-04-25T03:10:41.729Z,99.99
2019-04-25T03:11:41.627Z,99.99
2019-04-25T03:12:41.617Z,99.99
2019-04-25T03:15:06.646Z,99.99
2019-04-25T03:15:30.587Z,99.99
2019-04-25T03:16:30.566Z,99.99
2019-04-25T03:17:30.543Z,99.99
2019-04-25T03:18:30.523Z,99.99
2019-04-25T03:19:30.507Z,99.99
2019-04-25T03:20:30.487Z,99.99
2019-04-25T03:21:30.456Z,99.99
2019-04-25T03:22:30.438Z,99.99
2019-04-25T03:23:30.415Z,99.99
2019-04-25T03:24:30.393Z,99.99
2019-04-25T03:25:30.375Z,99.99
2019-04-25T03:27:05.209Z,99.99
2019-04-25T03:27:30.328Z,99.99
2019-04-25T03:29:04.937Z,99.99
2019-04-25T03:29:30.292Z,99.99
2019-04-25T03:31:07.341Z,99.99
2019-04-25T03:31:30.261Z,99.99
2019-04-25T03:32:30.220Z,99.99
2019-04-25T03:33:30.202Z,99.99
2019-04-25T03:34:30.186Z,99.99
2019-04-25T03:35:30.156Z,99.99
2019-04-25T03:36:30.134Z,99.99
2019-04-25T03:37:30.113Z,99.99
2019-04-25T03:38:30.092Z,99.99
2019-04-25T03:39:30.070Z,99.99
2019-04-25T03:40:30.049Z,99.99
2019-04-25T03:41:30.028Z,99.99
2019-04-25T03:42:30.008Z,99.99
2019-04-25T03:43:29.985Z,99.99
2019-04-25T03:44:29.964Z,99.99
2019-04-25T03:45:29.950Z,99.99
2019-04-25T03:46:29.922Z,99.99
2019-04-25T03:47:29.901Z,99.99
2019-04-25T03:48:29.878Z,99.99
2019-04-25T03:53:23.980Z,99.99
2019-04-25T03:53:49.385Z,99.99
2019-04-25T03:54:49.362Z,99.99
2019-04-25T03:55:49.342Z,99.99
2019-04-25T03:56:53.500Z,99.99
2019-04-25T03:58:23.940Z,99.99
2019-04-25T03:58:49.275Z,99.99
2019-04-25T03:59:49.253Z,99.99
2019-04-25T04:00:49.233Z,99.99
2019-04-25T04:01:49.211Z,99.99
2019-04-25T04:02:49.190Z,99.99
2019-04-25T04:04:23.755Z,99.99
2019-04-25T04:07:09.823Z,99.99
2019-04-25T04:07:34.777Z,99.99
2019-04-25T04:08:35.776Z,99.99
2019-04-25T04:10:08.025Z,99.99
2019-04-25T04:11:08.689Z,99.99
2019-04-25T04:11:34.688Z,99.99
2019-04-25T04:12:35.586Z,99.99
2019-04-25T04:13:34.641Z,99.99
2019-04-25T04:14:34.619Z,99.99
2019-04-25T04:15:34.607Z,99.99
2019-04-25T04:17:08.782Z,99.99
2019-04-25T04:19:53.718Z,99.99
2019-04-25T04:20:20.094Z,99.99
2019-04-25T04:21:20.060Z,99.99
2019-04-25T04:22:53.386Z,99.99
2019-04-25T04:23:54.204Z,99.99
2019-04-25T04:24:19.998Z,99.99
2019-04-25T04:25:20.008Z,99.99
2019-04-25T04:26:19.974Z,99.99
2019-04-25T04:27:53.816Z,99.99
2019-04-25T04:28:53.439Z,99.99
2019-04-25T04:31:38.729Z,99.99
2019-04-25T04:32:06.832Z,99.99
2019-04-25T04:33:06.849Z,99.99
2019-04-25T04:34:38.544Z,99.99
2019-04-25T04:35:38.509Z,99.99
2019-04-25T04:36:05.278Z,99.99
2019-04-25T04:37:05.256Z,99.99
2019-04-25T04:38:05.237Z,99.99
2019-04-25T04:39:38.432Z,99.99
2019-04-25T04:40:38.404Z,99.99
2019-04-25T04:53:46.410Z,99.99
2019-04-25T04:55:05.380Z,99.99
2019-04-25T04:55:20.692Z,99.99
2019-04-25T04:56:53.883Z,99.99
2019-04-25T04:57:54.330Z,99.99
2019-04-25T04:58:20.630Z,99.99
2019-04-25T05:01:06.003Z,99.99
2019-04-25T05:02:39.201Z,99.99
2019-04-25T05:04:51.112Z,99.99
2019-04-25T05:06:25.176Z,99.99
2019-04-25T05:08:36.166Z,99.99
2019-04-25T05:10:09.346Z,99.99
2019-04-25T05:12:21.646Z,99.99
2019-04-25T05:15:06.335Z,99.99
2019-04-25T06:36:46.984Z,79.96
2019-04-25T06:39:32.244Z,78.28
2019-04-25T06:42:17.090Z,78.76
2019-04-25T07:19:29.975Z,69.39
2019-04-25T07:21:03.360Z,68.75
2019-04-25T07:21:30.265Z,68.72
2019-04-25T07:22:29.725Z,68.81
2019-04-25T07:23:29.815Z,68.46
2019-04-25T07:24:29.691Z,68.33
2019-04-25T07:25:30.298Z,68.14
2019-04-25T07:26:30.148Z,67.85
2019-04-25T07:27:30.502Z,68.05
2019-04-25T07:28:31.128Z,68.14
2019-04-25T07:29:30.484Z,68.14
2019-04-25T07:30:43.844Z,68.37
2019-04-25T07:31:29.588Z,67.69
2019-04-25T07:32:31.066Z,67.69
2019-04-25T07:33:29.631Z,67.50
2019-04-25T07:34:29.521Z,66.83
2019-04-25T07:35:29.506Z,65.88
2019-04-25T07:36:29.488Z,65.59
2019-04-25T07:37:29.844Z,66.06
2019-04-25T07:38:29.465Z,65.59
2019-04-25T07:39:29.590Z,66.26
2019-04-25T07:40:29.670Z,66.35
2019-04-25T07:41:29.408Z,65.88
2019-04-25T07:42:29.812Z,65.78
2019-04-25T07:43:29.653Z,65.91
2019-04-25T07:44:45.571Z,65.52
2019-04-25T07:45:29.345Z,64.28
2019-04-25T07:46:29.807Z,65.05
2019-04-25T07:47:29.450Z,64.76
2019-04-25T07:48:30.082Z,63.51
2019-04-25T07:49:29.278Z,63.70
2019-04-25T07:50:30.129Z,63.89
2019-04-25T07:51:29.245Z,64.09
2019-04-25T07:52:29.238Z,63.89
2019-04-25T07:53:30.339Z,63.79
2019-04-25T07:54:29.211Z,63.06
2019-04-25T07:55:29.233Z,62.48
2019-04-25T07:56:29.399Z,63.12
2019-04-25T07:57:29.187Z,62.68
2019-04-25T07:58:44.936Z,62.68
2019-04-25T07:59:29.122Z,62.36
2019-04-25T08:00:29.659Z,63.06
2019-04-25T08:01:29.375Z,63.16
2019-04-25T08:02:29.715Z,63.06
2019-04-25T08:03:29.986Z,63.16
2019-04-25T08:04:29.090Z,62.29
2019-04-25T08:05:29.604Z,61.72
2019-04-25T08:06:29.358Z,61.43
2019-04-25T08:07:29.660Z,61.24
2019-04-25T08:08:29.764Z,61.59
2019-04-25T08:09:29.566Z,61.40
2019-04-25T08:10:29.994Z,61.98
2019-04-25T08:11:29.821Z,61.11
2019-04-25T08:12:28.940Z,61.21
2019-04-25T08:13:28.909Z,61.11
2019-04-25T08:14:30.104Z,61.49
2019-04-25T08:15:29.801Z,61.30
2019-04-25T08:16:29.804Z,61.21
2019-04-25T08:17:28.993Z,60.85
2019-04-25T08:18:28.829Z,61.59
2019-04-25T08:19:29.643Z,61.24
2019-04-25T08:20:29.266Z,60.92
2019-04-25T08:21:28.782Z,61.24
2019-04-25T08:22:30.031Z,61.43
2019-04-25T08:23:30.817Z,60.85
2019-04-25T08:24:29.207Z,60.95
2019-04-25T08:25:29.370Z,60.38
2019-04-25T08:26:29.485Z,60.38
2019-04-25T08:27:28.694Z,59.80
2019-04-25T08:28:28.672Z,58.84
2019-04-25T08:29:28.661Z,58.94
2019-04-25T08:30:29.785Z,59.03
2019-04-25T08:31:28.634Z,59.61
2019-04-25T08:32:28.660Z,58.94
2019-04-25T08:33:29.761Z,59.03
2019-04-25T08:34:28.582Z,59.61
2019-04-25T08:35:29.961Z,59.67
2019-04-25T08:36:28.556Z,59.09
2019-04-25T08:37:29.570Z,60.35
2019-04-25T08:38:28.518Z,60.38
2019-04-25T08:39:28.522Z,60.08
2019-04-25T08:40:28.486Z,59.70
2019-04-25T08:41:28.487Z,59.70
2019-04-25T08:42:28.457Z,59.70
2019-04-25T08:43:28.448Z,59.16
2019-04-25T08:44:28.442Z,58.42
2019-04-25T08:45:28.414Z,57.36
2019-04-25T08:46:28.396Z,57.26
2019-04-25T08:47:28.378Z,57.52
2019-04-25T08:48:28.360Z,57.65
2019-04-25T08:49:28.349Z,57.17
2019-04-25T08:50:31.389Z,56.68
2019-04-25T08:51:28.314Z,56.30
2019-04-25T08:52:28.298Z,56.49
2019-04-25T08:53:28.291Z,55.82
2019-04-25T08:54:28.269Z,55.76
2019-04-25T08:55:28.268Z,55.46
2019-04-25T08:56:28.241Z,54.53
2019-04-25T08:57:28.238Z,54.72
2019-04-25T08:58:28.215Z,54.34
2019-04-25T08:59:36.076Z,54.14
2019-04-25T09:00:28.181Z,54.24
2019-04-25T09:01:28.176Z,53.76
2019-04-25T09:02:28.153Z,54.05
2019-04-25T09:03:28.137Z,53.96
2019-04-25T09:04:28.135Z,53.76
2019-04-25T09:05:28.145Z,54.08
2019-04-25T09:06:28.096Z,53.40
2019-04-25T09:07:28.081Z,52.75
2019-04-25T09:08:28.070Z,52.56
2019-04-25T09:09:28.059Z,52.56
2019-04-25T09:10:28.049Z,51.82
2019-04-25T09:11:28.038Z,51.89
2019-04-25T09:12:28.016Z,52.66
2019-04-25T09:13:28.001Z,52.54
2019-04-25T09:14:27.988Z,53.02
2019-04-25T09:15:27.980Z,53.21
2019-04-25T09:16:27.971Z,53.88
2019-04-25T09:17:27.959Z,53.98
2019-04-25T09:18:27.939Z,53.86
2019-04-25T09:19:27.923Z,53.96
2019-04-25T09:20:27.909Z,54.34
2019-04-25T09:21:27.913Z,54.22
2019-04-25T09:22:27.888Z,55.08
2019-04-25T09:23:27.872Z,54.72
2019-04-25T09:24:27.867Z,54.63
2019-04-25T09:25:27.847Z,55.08
2019-04-25T09:26:27.834Z,55.34
2019-04-25T09:27:30.453Z,55.82
2019-04-25T09:28:27.813Z,56.59
2019-04-25T09:29:27.801Z,56.21
2019-04-25T09:30:27.799Z,56.52
2019-04-25T09:31:27.764Z,56.59
2019-04-25T09:32:27.757Z,57.36
2019-04-25T09:33:27.748Z,56.98
2019-04-25T09:34:27.730Z,57.04
2019-04-25T09:35:27.710Z,57.93
2019-04-25T09:36:27.702Z,57.52
2019-04-25T09:37:27.682Z,57.90
2019-04-25T09:38:27.666Z,58.26
2019-04-25T09:39:27.660Z,58.87
2019-04-25T09:40:27.643Z,58.77
2019-04-25T09:41:27.622Z,58.58
2019-04-25T09:42:27.616Z,58.39
2019-04-25T09:43:27.595Z,59.16
2019-04-25T09:44:27.584Z,59.06
2019-04-25T09:45:27.563Z,59.06
2019-04-25T09:46:27.557Z,59.06
2019-04-25T09:47:27.533Z,59.06
2019-04-25T09:48:27.525Z,59.06
2019-04-25T09:49:27.510Z,58.70
2019-04-25T09:50:27.488Z,58.77
2019-04-25T09:51:27.472Z,59.34
2019-04-25T09:52:27.465Z,59.34
2019-04-25T09:53:27.563Z,59.89
2019-04-25T09:54:27.444Z,60.02
2019-04-25T09:55:27.414Z,59.64
2019-04-25T09:56:27.403Z,59.28
2019-04-25T09:57:27.397Z,58.80
2019-04-25T09:58:27.373Z,58.51
2019-04-25T09:59:30.003Z,58.51
2019-04-25T10:00:27.343Z,57.87
2019-04-25T10:01:27.322Z,57.77
2019-04-25T10:02:27.304Z,57.32
2019-04-25T10:03:27.290Z,56.55
2019-04-25T10:04:27.283Z,56.36
2019-04-25T10:05:27.262Z,56.84
2019-04-25T10:06:27.244Z,56.55
2019-04-25T10:07:27.231Z,56.93
2019-04-25T10:08:27.216Z,57.42
2019-04-25T10:09:27.212Z,57.32
2019-04-25T10:10:27.187Z,57.42
2019-04-25T10:11:27.172Z,57.48
2019-04-25T10:12:27.158Z,58.99
2019-04-25T10:13:27.154Z,59.95
2019-04-25T10:14:27.130Z,59.25
2019-04-25T10:15:27.118Z,59.66
2019-04-25T10:16:27.101Z,60.43
2019-04-25T10:17:27.107Z,59.47
2019-04-25T10:18:27.073Z,59.66
2019-04-25T10:19:27.059Z,59.50
2019-04-25T10:20:27.199Z,59.86
2019-04-25T10:21:27.029Z,59.95
2019-04-25T10:22:27.021Z,60.14
2019-04-25T10:23:27.017Z,59.38
2019-04-25T10:24:26.988Z,60.05
2019-04-25T10:25:26.978Z,60.53
2019-04-25T10:26:26.954Z,60.31
2019-04-25T10:27:26.956Z,60.50
2019-04-25T10:28:26.931Z,61.17
2019-04-25T10:29:39.161Z,61.17
2019-04-25T10:30:26.905Z,60.78
2019-04-25T10:31:26.886Z,61.17
2019-04-25T10:32:26.865Z,61.17
2019-04-25T10:33:26.853Z,61.65
2019-04-25T10:34:26.844Z,61.94
2019-04-25T10:35:26.821Z,62.13
2019-04-25T10:36:26.863Z,61.65
2019-04-25T10:37:26.789Z,62.23
2019-04-25T10:38:26.774Z,61.65
2019-04-25T10:39:26.888Z,62.23
2019-04-25T10:40:26.749Z,61.97
2019-04-25T10:41:26.730Z,61.58
2019-04-25T10:42:26.710Z,61.40
2019-04-25T10:43:26.705Z,61.58
2019-04-25T10:44:26.681Z,61.40
2019-04-25T10:45:26.669Z,61.20
2019-04-25T10:46:26.648Z,61.20
2019-04-25T10:47:26.631Z,60.53
2019-04-25T10:48:26.619Z,60.24
2019-04-25T10:49:26.632Z,60.08
2019-04-25T10:50:26.586Z,60.37
2019-04-25T10:51:26.574Z,59.99
2019-04-25T10:52:26.556Z,59.24
2019-04-25T10:53:26.544Z,58.86
2019-04-25T10:54:26.526Z,58.92
2019-04-25T10:55:26.509Z,58.86
2019-04-25T10:56:26.494Z,58.95
2019-04-25T10:57:26.515Z,59.22
2019-04-25T10:58:26.476Z,58.76
2019-04-25T10:59:26.452Z,58.09
2019-04-25T11:00:26.433Z,58.02
2019-04-25T11:01:26.432Z,57.73
2019-04-25T11:02:26.404Z,57.35
2019-04-25T11:03:26.598Z,56.70
2019-04-25T11:04:26.374Z,55.19
2019-04-25T11:05:26.368Z,54.16
2019-04-25T11:06:26.356Z,52.73
2019-04-25T11:08:20.626Z,51.70
2019-04-25T11:09:20.611Z,50.96
2019-04-25T11:10:20.604Z,50.57
2019-04-25T11:11:20.596Z,51.12
2019-04-25T11:12:20.575Z,51.22
2019-04-25T11:13:20.565Z,51.22
2019-04-25T11:14:20.560Z,50.57
2019-04-25T11:15:20.542Z,49.24
2019-04-25T11:16:20.539Z,49.24
2019-04-25T11:17:24.226Z,48.18
2019-04-25T11:18:20.520Z,47.99
2019-04-25T11:19:20.518Z,47.89
2019-04-25T11:20:20.492Z,48.16
2019-04-25T11:25:31.008Z,47.02
2019-04-25T11:27:04.402Z,47.05
2019-04-25T11:27:31.093Z,45.72
2019-04-25T11:29:04.198Z,46.03
2019-04-25T11:29:30.986Z,44.77
2019-04-25T11:30:30.971Z,45.98
2019-04-25T11:31:30.959Z,46.47
2019-04-25T11:32:30.961Z,46.37
2019-04-25T11:33:30.961Z,46.08
2019-04-25T11:34:30.935Z,47.19
2019-04-25T11:35:30.932Z,48.16
2019-04-25T11:36:30.938Z,47.50
2019-04-25T11:37:30.923Z,46.75
2019-04-25T11:38:31.029Z,45.64
2019-04-25T11:39:30.904Z,45.59
2019-04-25T11:40:31.045Z,45.67
2019-04-25T11:41:30.889Z,46.64
2019-04-25T11:42:30.880Z,47.09
2019-04-25T11:43:30.874Z,48.21
2019-04-25T11:44:30.873Z,49.37
2019-04-25T11:45:30.873Z,49.53
2019-04-25T11:46:30.848Z,49.84
2019-04-25T11:47:30.852Z,49.84
2019-04-25T11:48:30.835Z,49.68
2019-04-25T11:49:30.861Z,48.90
2019-04-25T11:50:30.811Z,49.29
2019-04-25T11:51:30.801Z,48.81
2019-04-25T11:52:30.798Z,48.71
2019-04-25T11:53:30.782Z,49.27
2019-04-25T11:54:30.791Z,49.41
2019-04-25T11:55:30.771Z,47.96
2019-04-25T11:56:30.761Z,49.46
2019-04-25T11:57:30.739Z,51.07
2019-04-25T11:58:30.729Z,51.72
2019-04-25T11:59:30.724Z,52.49
2019-04-25T12:00:30.723Z,52.42
2019-04-25T12:01:30.704Z,52.49
2019-04-25T12:02:30.686Z,52.97
2019-04-25T12:03:30.673Z,52.87
2019-04-25T12:04:30.709Z,52.87
2019-04-25T12:05:30.655Z,53.05
2019-04-25T12:06:30.639Z,52.97
2019-04-25T12:07:30.625Z,52.59
2019-04-25T12:08:30.610Z,52.59
2019-04-25T12:09:30.599Z,52.59
2019-04-25T12:10:30.601Z,51.92
2019-04-25T12:11:30.582Z,51.82
2019-04-25T12:12:30.574Z,51.24
2019-04-25T12:13:30.545Z,51.36
2019-04-25T12:14:30.543Z,50.95
2019-04-25T12:15:30.519Z,51.05
2019-04-25T12:16:30.506Z,51.05
2019-04-25T12:17:30.493Z,51.50
2019-04-25T12:18:33.224Z,51.24
2019-04-25T12:19:35.739Z,51.24
2019-04-25T12:20:30.457Z,51.05
2019-04-25T12:21:30.438Z,51.07
2019-04-25T12:22:30.441Z,50.11
2019-04-25T12:23:30.409Z,50.59
2019-04-25T12:24:30.406Z,50.59
2019-04-25T12:25:30.381Z,50.30
2019-04-25T12:26:30.369Z,49.82
2019-04-25T12:27:30.359Z,50.01
2019-04-25T12:28:30.342Z,50.21
2019-04-25T12:29:30.326Z,50.27
2019-04-25T12:30:38.239Z,49.82
2019-04-25T12:31:34.181Z,49.34
2019-04-25T12:32:30.284Z,49.24
2019-04-25T12:33:31.284Z,49.24
2019-04-25T12:34:30.260Z,48.95
2019-04-25T12:35:30.249Z,48.28
2019-04-25T12:36:30.228Z,48.28
2019-04-25T12:37:30.211Z,48.47
2019-04-25T12:38:30.198Z,48.76
2019-04-25T12:39:30.185Z,49.34
2019-04-25T12:40:30.168Z,48.76
2019-04-25T12:41:30.171Z,49.05
2019-04-25T12:42:30.143Z,48.86
2019-04-25T12:43:30.129Z,48.76
2019-04-25T12:44:30.114Z,48.57
2019-04-25T12:45:30.112Z,48.95
2019-04-25T12:46:30.093Z,48.88
2019-04-25T12:47:30.073Z,48.11
2019-04-25T12:48:30.067Z,48.49
2019-04-25T12:49:30.051Z,48.40
2019-04-25T12:50:30.045Z,47.44
2019-04-25T12:51:30.018Z,47.34
2019-04-25T12:52:30.011Z,47.27
2019-04-25T12:53:29.988Z,47.17
2019-04-25T12:54:29.979Z,46.88
2019-04-25T12:55:29.962Z,46.97
2019-04-25T12:56:29.956Z,46.78
2019-04-25T12:57:29.939Z,47.07
2019-04-25T12:58:29.938Z,46.40
2019-04-25T12:59:29.905Z,47.07
2019-04-25T13:00:29.895Z,47.36
2019-04-25T13:01:29.877Z,46.20
2019-04-25T13:02:29.861Z,46.37
2019-04-25T13:03:29.847Z,47.05
2019-04-25T13:04:29.832Z,47.24
2019-04-25T13:05:29.829Z,47.36
2019-04-25T13:06:29.819Z,46.47
2019-04-25T13:07:30.811Z,46.95
2019-04-25T13:09:24.080Z,46.47
2019-04-25T13:11:07.491Z,46.47
2019-04-25T13:11:24.104Z,46.49
2019-04-25T13:14:09.289Z,46.11
2019-04-25T13:15:09.884Z,45.75
2019-04-25T13:16:09.244Z,45.84
2019-04-25T13:17:09.591Z,45.53
2019-04-25T13:18:09.214Z,45.82
2019-04-25T13:19:44.006Z,45.62
2019-04-25T13:20:09.224Z,45.72
2019-04-25T13:21:09.188Z,45.94
2019-04-25T13:22:09.154Z,46.03
2019-04-25T13:23:09.152Z,45.72
2019-04-25T13:24:42.335Z,45.84
2019-04-25T13:25:09.118Z,45.82
2019-04-25T13:26:09.099Z,46.13
2019-04-25T13:27:09.092Z,45.75
2019-04-25T13:28:09.066Z,45.17
2019-04-25T13:29:09.249Z,45.65
2019-04-25T13:30:09.040Z,45.84
2019-04-25T13:31:12.265Z,44.97
2019-04-25T13:32:09.013Z,45.17
2019-04-25T13:33:08.992Z,44.37
2019-04-25T13:34:09.652Z,44.85
2019-04-25T13:35:43.375Z,45.72
2019-04-25T13:36:08.962Z,45.92
2019-04-25T13:37:08.989Z,45.92
2019-04-25T13:38:08.928Z,45.24
2019-04-25T13:39:08.910Z,45.04
2019-04-25T13:40:08.891Z,45.72
2019-04-25T13:41:08.885Z,45.72
2019-04-25T13:42:08.861Z,45.92
2019-04-25T13:43:08.843Z,46.03
2019-04-25T13:44:09.259Z,45.94
2019-04-25T13:45:08.819Z,45.92
2019-04-25T13:46:08.806Z,45.72
2019-04-25T13:47:08.784Z,45.94
2019-04-25T13:48:08.777Z,45.75
2019-04-25T13:49:08.759Z,45.55
2019-04-25T13:50:08.738Z,45.17
2019-04-25T13:51:08.735Z,44.87
2019-04-25T13:52:08.708Z,44.68
2019-04-25T13:54:54.043Z,44.51
2019-04-25T13:55:54.031Z,44.42
2019-04-25T13:56:54.020Z,44.70
2019-04-25T13:57:54.898Z,44.51
2019-04-25T13:58:54.316Z,44.12
2019-04-25T13:59:54.190Z,44.03
2019-04-25T14:00:53.963Z,44.70
2019-04-25T14:01:54.172Z,43.45
2019-04-25T14:02:53.925Z,43.62
2019-04-25T14:03:54.252Z,44.49
2019-04-25T14:05:27.102Z,44.97
2019-04-25T14:05:54.055Z,44.87
2019-04-25T14:06:53.879Z,44.90
2019-04-25T14:07:53.847Z,44.70
2019-04-25T14:08:53.848Z,44.82
2019-04-25T14:09:53.820Z,44.43
2019-04-25T14:10:54.265Z,43.59
2019-04-25T14:11:54.038Z,43.66
2019-04-25T14:12:53.771Z,43.30
2019-04-25T14:13:53.764Z,42.72
2019-04-25T14:14:54.124Z,42.62
2019-04-25T14:15:53.725Z,41.85
2019-04-25T14:16:54.613Z,41.67
2019-04-25T14:17:53.839Z,41.46
2019-04-25T14:18:53.683Z,41.27
2019-04-25T14:19:54.191Z,41.56
2019-04-25T14:20:53.654Z,41.75
2019-04-25T14:21:54.270Z,41.93
2019-04-25T14:22:53.757Z,42.21
2019-04-25T14:23:54.111Z,42.21
2019-04-25T14:24:54.061Z,42.31
2019-04-25T14:25:53.598Z,42.48
2019-04-25T14:26:53.575Z,42.68
2019-04-25T14:28:29.254Z,42.77
2019-04-25T14:29:26.761Z,42.68
2019-04-25T14:29:53.631Z,42.79
2019-04-25T14:30:53.516Z,42.70
2019-04-25T14:32:28.704Z,42.77
2019-04-25T14:32:53.692Z,42.89
2019-04-25T14:33:53.466Z,42.50
2019-04-25T14:34:54.467Z,42.68
2019-04-25T14:35:54.800Z,42.58
2019-04-25T14:36:54.183Z,42.79
2019-04-25T14:37:53.912Z,42.31
2019-04-25T14:38:53.394Z,42.31
2019-04-25T14:39:53.633Z,42.02
2019-04-25T14:40:53.364Z,42.31
2019-04-25T14:41:53.362Z,42.31
2019-04-25T14:42:53.340Z,42.02
2019-04-25T14:43:53.323Z,41.93
2019-04-25T14:44:53.310Z,42.21
2019-04-25T14:45:55.960Z,42.50
2019-04-25T14:46:53.280Z,42.21
2019-04-25T14:47:53.274Z,42.79
2019-04-25T14:48:53.250Z,42.89
2019-04-25T14:49:53.251Z,42.70
2019-04-25T14:50:53.230Z,42.79
2019-04-25T14:51:53.218Z,42.60
2019-04-25T14:52:53.196Z,42.70
2019-04-25T14:53:53.188Z,42.79
2019-04-25T14:54:53.175Z,42.70
2019-04-25T14:55:53.181Z,42.68
2019-04-25T14:56:53.140Z,42.89
2019-04-25T14:57:53.126Z,42.60
2019-04-25T14:58:53.113Z,42.70
2019-04-25T14:59:53.118Z,42.99
2019-04-25T15:00:53.086Z,42.79
2019-04-25T15:01:53.068Z,42.77
2019-04-25T15:02:54.301Z,43.35
2019-04-25T15:03:53.090Z,43.33
2019-04-25T15:04:53.038Z,43.26
2019-04-25T15:05:53.015Z,43.43
2019-04-25T15:06:53.003Z,43.64
2019-04-25T15:07:53.002Z,43.35
2019-04-25T15:08:52.971Z,43.84
2019-04-25T15:09:52.960Z,43.64
2019-04-25T15:10:52.943Z,43.64
2019-04-25T15:11:52.930Z,43.93
2019-04-25T15:12:52.933Z,43.45
2019-04-25T15:13:52.901Z,43.35
2019-04-25T15:14:52.891Z,43.74
2019-04-25T15:15:52.885Z,43.64
2019-04-25T15:16:52.868Z,43.84
2019-04-25T15:17:52.844Z,43.84
2019-04-25T15:18:52.834Z,43.35
2019-04-25T15:19:52.818Z,44.03
2019-04-25T15:20:52.808Z,43.66
2019-04-25T15:21:52.795Z,43.37
2019-04-25T15:22:52.781Z,43.47
2019-04-25T15:24:00.058Z,43.37
2019-04-25T15:24:52.745Z,43.68
2019-04-25T15:25:52.739Z,43.28
2019-04-25T15:26:52.719Z,42.79
2019-04-25T15:27:52.705Z,42.99
2019-04-25T15:28:52.689Z,43.66
2019-04-25T15:29:52.679Z,43.47
2019-04-25T15:30:53.284Z,42.70
2019-04-25T15:31:55.945Z,43.16
2019-04-25T15:32:52.641Z,43.35
2019-04-25T15:33:52.779Z,43.45
2019-04-25T15:34:52.613Z,43.76
2019-04-25T15:35:52.600Z,43.35
2019-04-25T15:36:52.586Z,43.54
2019-04-25T15:37:52.568Z,44.22